sensor_id;sensor_type;location;lat;lon;timestamp;pressure;altitude;pressure_sealevel;temperature;humidity
37778;BME280;23615;51.506;7.678;2024-03-02T00:02:11;98572.50;;;7.22;92.22
37778;BME280;23615;51.506;7.678;2024-03-02T00:04:36;98559.00;;;7.23;91.94
37778;BME280;23615;51.506;7.678;2024-03-02T00:07:02;98559.59;;;7.25;92.09
37778;BME280;23615;51.506;7.678;2024-03-02T00:09:29;98562.53;;;7.29;91.95
37778;BME280;23615;51.506;7.678;2024-03-02T00:11:54;98564.84;;;7.37;91.24
37778;BME280;23615;51.506;7.678;2024-03-02T00:14:20;98568.19;;;7.32;91.23
37778;BME280;23615;51.506;7.678;2024-03-02T00:16:45;98567.00;;;7.40;90.88
37778;BME280;23615;51.506;7.678;2024-03-02T00:19:11;98571.16;;;7.64;89.50
37778;BME280;23615;51.506;7.678;2024-03-02T00:21:36;98574.28;;;7.61;89.10
37778;BME280;23615;51.506;7.678;2024-03-02T00:24:12;98573.53;;;7.49;89.74
37778;BME280;23615;51.506;7.678;2024-03-02T00:26:45;98576.72;;;7.34;89.57
37778;BME280;23615;51.506;7.678;2024-03-02T00:29:15;98566.59;;;7.31;90.55
37778;BME280;23615;51.506;7.678;2024-03-02T00:31:41;98566.53;;;7.43;90.00
37778;BME280;23615;51.506;7.678;2024-03-02T00:34:07;98568.53;;;7.36;89.92
37778;BME280;23615;51.506;7.678;2024-03-02T00:36:33;98574.34;;;7.66;89.32
37778;BME280;23615;51.506;7.678;2024-03-02T00:38:58;98576.94;;;7.61;89.15
37778;BME280;23615;51.506;7.678;2024-03-02T00:41:30;98575.31;;;7.60;88.49
37778;BME280;23615;51.506;7.678;2024-03-02T00:44:00;98575.88;;;7.45;89.77
37778;BME280;23615;51.506;7.678;2024-03-02T00:46:28;98567.22;;;7.38;89.71
37778;BME280;23615;51.506;7.678;2024-03-02T00:49:21;98577.19;;;7.31;90.15
37778;BME280;23615;51.506;7.678;2024-03-02T00:51:47;98567.72;;;7.35;90.48
37778;BME280;23615;51.506;7.678;2024-03-02T00:54:19;98566.53;;;7.43;90.07
37778;BME280;23615;51.506;7.678;2024-03-02T00:56:46;98561.16;;;7.55;89.33
37778;BME280;23615;51.506;7.678;2024-03-02T00:59:12;98561.69;;;7.40;89.46
37778;BME280;23615;51.506;7.678;2024-03-02T01:01:37;98559.59;;;7.42;89.90
37778;BME280;23615;51.506;7.678;2024-03-02T01:04:03;98554.69;;;7.34;90.98
37778;BME280;23615;51.506;7.678;2024-03-02T01:06:28;98556.06;;;7.36;90.67
37778;BME280;23615;51.506;7.678;2024-03-02T01:08:54;98549.38;;;7.34;90.91
37778;BME280;23615;51.506;7.678;2024-03-02T01:11:19;98544.88;;;7.34;90.65
37778;BME280;23615;51.506;7.678;2024-03-02T01:13:47;98547.31;;;7.36;90.65
37778;BME280;23615;51.506;7.678;2024-03-02T01:16:12;98543.84;;;7.35;90.55
37778;BME280;23615;51.506;7.678;2024-03-02T01:18:38;98548.91;;;7.37;90.66
37778;BME280;23615;51.506;7.678;2024-03-02T01:21:03;98543.34;;;7.38;90.54
37778;BME280;23615;51.506;7.678;2024-03-02T01:23:29;98538.84;;;7.39;90.06
37778;BME280;23615;51.506;7.678;2024-03-02T01:25:54;98544.16;;;7.39;89.50
37778;BME280;23615;51.506;7.678;2024-03-02T01:28:20;98540.69;;;7.38;89.67
37778;BME280;23615;51.506;7.678;2024-03-02T01:30:46;98531.16;;;7.37;89.66
37778;BME280;23615;51.506;7.678;2024-03-02T01:33:11;98518.59;;;7.33;89.89
37778;BME280;23615;51.506;7.678;2024-03-02T01:35:36;98521.72;;;7.30;90.00
37778;BME280;23615;51.506;7.678;2024-03-02T01:38:03;98521.72;;;7.30;89.94
37778;BME280;23615;51.506;7.678;2024-03-02T01:40:28;98523.03;;;7.27;90.08
37778;BME280;23615;51.506;7.678;2024-03-02T01:42:54;98519.56;;;7.27;90.47
37778;BME280;23615;51.506;7.678;2024-03-02T01:45:20;98520.38;;;7.27;90.07
37778;BME280;23615;51.506;7.678;2024-03-02T01:47:46;98517.13;;;7.25;90.34
37778;BME280;23615;51.506;7.678;2024-03-02T01:50:12;98504.84;;;7.19;90.70
37778;BME280;23615;51.506;7.678;2024-03-02T01:52:38;98509.41;;;7.24;90.33
37778;BME280;23615;51.506;7.678;2024-03-02T01:55:04;98515.19;;;7.21;90.26
37778;BME280;23615;51.506;7.678;2024-03-02T01:57:29;98509.81;;;7.16;90.60
37778;BME280;23615;51.506;7.678;2024-03-02T01:59:55;98514.66;;;7.19;89.80
37778;BME280;23615;51.506;7.678;2024-03-02T02:02:21;98512.34;;;7.10;90.63
37778;BME280;23615;51.506;7.678;2024-03-02T02:04:46;98507.41;;;7.14;90.57
37778;BME280;23615;51.506;7.678;2024-03-02T02:07:12;98513.50;;;7.14;90.41
37778;BME280;23615;51.506;7.678;2024-03-02T02:09:42;98511.81;;;7.08;90.42
37778;BME280;23615;51.506;7.678;2024-03-02T02:12:09;98504.97;;;7.12;90.29
37778;BME280;23615;51.506;7.678;2024-03-02T02:14:35;98501.28;;;7.13;89.74
37778;BME280;23615;51.506;7.678;2024-03-02T02:17:00;98505.47;;;7.09;90.15
37778;BME280;23615;51.506;7.678;2024-03-02T02:19:26;98508.78;;;7.17;90.33
37778;BME280;23615;51.506;7.678;2024-03-02T02:21:51;98502.44;;;7.18;89.87
37778;BME280;23615;51.506;7.678;2024-03-02T02:24:16;98501.50;;;7.12;89.95
37778;BME280;23615;51.506;7.678;2024-03-02T02:26:41;98498.63;;;7.13;90.16
37778;BME280;23615;51.506;7.678;2024-03-02T02:29:07;98499.53;;;7.19;90.37
37778;BME280;23615;51.506;7.678;2024-03-02T02:31:39;98498.75;;;7.19;89.81
37778;BME280;23615;51.506;7.678;2024-03-02T02:34:05;98495.50;;;7.17;90.37
37778;BME280;23615;51.506;7.678;2024-03-02T02:36:32;98501.63;;;7.17;89.99
37778;BME280;23615;51.506;7.678;2024-03-02T02:39:00;98493.91;;;7.16;89.93
37778;BME280;23615;51.506;7.678;2024-03-02T02:41:28;98492.84;;;7.17;89.99
37778;BME280;23615;51.506;7.678;2024-03-02T02:43:53;98498.16;;;7.17;90.30
37778;BME280;23615;51.506;7.678;2024-03-02T02:46:19;98495.16;;;7.13;90.30
37778;BME280;23615;51.506;7.678;2024-03-02T02:48:44;98495.16;;;7.13;90.30
37778;BME280;23615;51.506;7.678;2024-03-02T02:51:10;98497.25;;;7.11;90.68
37778;BME280;23615;51.506;7.678;2024-03-02T02:53:35;98483.19;;;7.10;89.79
37778;BME280;23615;51.506;7.678;2024-03-02T02:56:00;98481.91;;;7.13;89.35
37778;BME280;23615;51.506;7.678;2024-03-02T02:58:25;98487.72;;;7.10;89.80
37778;BME280;23615;51.506;7.678;2024-03-02T03:00:51;98482.88;;;7.07;89.78
37778;BME280;23615;51.506;7.678;2024-03-02T03:03:16;98487.59;;;7.05;90.09
37778;BME280;23615;51.506;7.678;2024-03-02T03:05:41;98487.25;;;7.01;89.93
37778;BME280;23615;51.506;7.678;2024-03-02T03:08:07;98488.56;;;6.99;89.97
37778;BME280;23615;51.506;7.678;2024-03-02T03:10:34;98484.31;;;6.98;90.08
37778;BME280;23615;51.506;7.678;2024-03-02T03:12:59;98488.00;;;6.97;90.04
37778;BME280;23615;51.506;7.678;2024-03-02T03:15:24;98484.53;;;6.96;89.77
37778;BME280;23615;51.506;7.678;2024-03-02T03:17:50;98485.34;;;6.97;89.82
37778;BME280;23615;51.506;7.678;2024-03-02T03:20:16;98478.66;;;6.94;89.86
37778;BME280;23615;51.506;7.678;2024-03-02T03:22:41;98494.34;;;6.96;89.75
37778;BME280;23615;51.506;7.678;2024-03-02T03:25:06;98483.16;;;6.94;89.88
37778;BME280;23615;51.506;7.678;2024-03-02T03:27:35;98487.91;;;6.92;89.82
37778;BME280;23615;51.506;7.678;2024-03-02T03:30:01;98489.19;;;6.89;89.76
37778;BME280;23615;51.506;7.678;2024-03-02T03:32:26;98488.63;;;6.87;89.50
37778;BME280;23615;51.506;7.678;2024-03-02T03:34:51;98486.75;;;6.88;89.71
37778;BME280;23615;51.506;7.678;2024-03-02T03:37:16;98483.38;;;6.92;89.46
37778;BME280;23615;51.506;7.678;2024-03-02T03:39:42;98486.16;;;6.97;89.18
37778;BME280;23615;51.506;7.678;2024-03-02T03:42:07;98484.34;;;6.86;89.23
37778;BME280;23615;51.506;7.678;2024-03-02T03:44:33;98486.91;;;6.81;89.49
37778;BME280;23615;51.506;7.678;2024-03-02T03:46:58;98495.09;;;6.80;89.88
37778;BME280;23615;51.506;7.678;2024-03-02T03:49:24;98491.06;;;6.77;89.77
37778;BME280;23615;51.506;7.678;2024-03-02T03:51:49;98498.22;;;6.76;89.63
37778;BME280;23615;51.506;7.678;2024-03-02T03:54:14;98496.38;;;6.77;89.43
37778;BME280;23615;51.506;7.678;2024-03-02T03:56:40;98498.44;;;6.75;90.08
37778;BME280;23615;51.506;7.678;2024-03-02T03:59:05;98503.44;;;6.71;90.12
37778;BME280;23615;51.506;7.678;2024-03-02T04:01:30;98508.63;;;6.66;90.27
37778;BME280;23615;51.506;7.678;2024-03-02T04:03:57;98505.72;;;6.68;90.34
37778;BME280;23615;51.506;7.678;2024-03-02T04:06:22;98508.63;;;6.66;90.26
37778;BME280;23615;51.506;7.678;2024-03-02T04:08:47;98499.53;;;6.62;90.23
37778;BME280;23615;51.506;7.678;2024-03-02T04:11:13;98504.50;;;6.59;90.54
37778;BME280;23615;51.506;7.678;2024-03-02T04:13:38;98512.69;;;6.57;90.73
37778;BME280;23615;51.506;7.678;2024-03-02T04:16:04;98509.56;;;6.60;90.79
37778;BME280;23615;51.506;7.678;2024-03-02T04:18:30;98517.97;;;6.57;90.58
37778;BME280;23615;51.506;7.678;2024-03-02T04:20:56;98519.00;;;6.56;91.37
37778;BME280;23615;51.506;7.678;2024-03-02T04:23:21;98506.69;;;6.62;91.18
37778;BME280;23615;51.506;7.678;2024-03-02T04:25:46;98501.00;;;6.70;91.08
37778;BME280;23615;51.506;7.678;2024-03-02T04:28:11;98499.47;;;6.74;90.61
37778;BME280;23615;51.506;7.678;2024-03-02T04:30:37;98502.72;;;6.76;90.90
37778;BME280;23615;51.506;7.678;2024-03-02T04:33:03;98503.84;;;6.80;90.96
37778;BME280;23615;51.506;7.678;2024-03-02T04:35:28;98501.78;;;6.82;90.62
37778;BME280;23615;51.506;7.678;2024-03-02T04:37:54;98512.84;;;6.79;91.03
37778;BME280;23615;51.506;7.678;2024-03-02T04:40:19;98511.97;;;6.73;91.35
37778;BME280;23615;51.506;7.678;2024-03-02T04:42:45;98518.63;;;6.76;90.94
37778;BME280;23615;51.506;7.678;2024-03-02T04:45:10;98515.97;;;6.76;91.28
37778;BME280;23615;51.506;7.678;2024-03-02T04:47:35;98515.28;;;6.81;91.40
37778;BME280;23615;51.506;7.678;2024-03-02T04:50:01;98520.00;;;6.79;91.33
37778;BME280;23615;51.506;7.678;2024-03-02T04:52:26;98521.84;;;6.78;90.92
37778;BME280;23615;51.506;7.678;2024-03-02T04:54:51;98523.91;;;6.76;90.92
37778;BME280;23615;51.506;7.678;2024-03-02T04:57:42;98521.50;;;6.74;91.01
37778;BME280;23615;51.506;7.678;2024-03-02T05:00:08;98514.34;;;6.75;91.18
37778;BME280;23615;51.506;7.678;2024-03-02T05:02:34;98516.19;;;6.74;91.52
37778;BME280;23615;51.506;7.678;2024-03-02T05:05:00;98519.66;;;6.75;91.72
37778;BME280;23615;51.506;7.678;2024-03-02T05:07:25;98522.88;;;6.77;91.63
37778;BME280;23615;51.506;7.678;2024-03-02T05:09:51;98518.63;;;6.76;91.93
37778;BME280;23615;51.506;7.678;2024-03-02T05:12:16;98517.81;;;6.75;91.55
37778;BME280;23615;51.506;7.678;2024-03-02T05:15:01;98524.50;;;6.78;91.68
37778;BME280;23615;51.506;7.678;2024-03-02T05:17:27;98512.72;;;6.74;91.72
37778;BME280;23615;51.506;7.678;2024-03-02T05:19:52;98524.63;;;6.71;91.79
37778;BME280;23615;51.506;7.678;2024-03-02T05:22:17;98532.81;;;6.70;91.85
37778;BME280;23615;51.506;7.678;2024-03-02T05:24:43;98531.19;;;6.69;92.09
37778;BME280;23615;51.506;7.678;2024-03-02T05:27:08;98535.69;;;6.68;91.84
37778;BME280;23615;51.506;7.678;2024-03-02T05:29:33;98544.69;;;6.67;92.06
37778;BME280;23615;51.506;7.678;2024-03-02T05:31:59;98546.19;;;6.63;91.80
37778;BME280;23615;51.506;7.678;2024-03-02T05:34:24;98556.53;;;6.65;91.92
37778;BME280;23615;51.506;7.678;2024-03-02T05:36:49;98560.25;;;6.64;92.00
37778;BME280;23615;51.506;7.678;2024-03-02T05:39:14;98567.16;;;6.65;92.18
37778;BME280;23615;51.506;7.678;2024-03-02T05:41:40;98559.69;;;6.62;92.39
37778;BME280;23615;51.506;7.678;2024-03-02T05:44:06;98568.09;;;6.59;92.03
37778;BME280;23615;51.506;7.678;2024-03-02T05:46:31;98559.56;;;6.57;92.00
37778;BME280;23615;51.506;7.678;2024-03-02T05:48:57;98566.16;;;6.54;92.22
37778;BME280;23615;51.506;7.678;2024-03-02T05:51:22;98560.03;;;6.54;92.18
37778;BME280;23615;51.506;7.678;2024-03-02T05:53:47;98562.94;;;6.52;92.15
37778;BME280;23615;51.506;7.678;2024-03-02T05:56:13;98569.84;;;6.53;92.03
37778;BME280;23615;51.506;7.678;2024-03-02T05:58:38;98560.50;;;6.51;91.89
37778;BME280;23615;51.506;7.678;2024-03-02T06:01:22;98563.38;;;6.49;92.13
37778;BME280;23615;51.506;7.678;2024-03-02T06:03:53;98563.59;;;6.48;92.33
37778;BME280;23615;51.506;7.678;2024-03-02T06:06:19;98567.06;;;6.48;92.26
37778;BME280;23615;51.506;7.678;2024-03-02T06:08:44;98563.88;;;6.46;92.29
37778;BME280;23615;51.506;7.678;2024-03-02T06:11:09;98560.63;;;6.44;92.28
37778;BME280;23615;51.506;7.678;2024-03-02T06:13:35;98566.16;;;6.43;92.53
37778;BME280;23615;51.506;7.678;2024-03-02T06:16:00;98552.91;;;6.43;92.58
37778;BME280;23615;51.506;7.678;2024-03-02T06:18:25;98558.78;;;6.45;92.77
37778;BME280;23615;51.506;7.678;2024-03-02T06:20:50;98564.09;;;6.45;92.54
37778;BME280;23615;51.506;7.678;2024-03-02T06:23:16;98574.09;;;6.43;92.85
37778;BME280;23615;51.506;7.678;2024-03-02T06:25:41;98575.16;;;6.42;92.74
37778;BME280;23615;51.506;7.678;2024-03-02T06:28:06;98576.31;;;6.46;92.76
37778;BME280;23615;51.506;7.678;2024-03-02T06:30:32;98578.16;;;6.45;92.74
37778;BME280;23615;51.506;7.678;2024-03-02T06:32:57;98581.81;;;6.44;93.01
37778;BME280;23615;51.506;7.678;2024-03-02T06:35:23;98578.81;;;6.41;93.19
37778;BME280;23615;51.506;7.678;2024-03-02T06:37:48;98580.91;;;6.38;93.27
37778;BME280;23615;51.506;7.678;2024-03-02T06:40:13;98587.22;;;6.37;93.50
37778;BME280;23615;51.506;7.678;2024-03-02T06:42:39;98584.34;;;6.39;93.16
37778;BME280;23615;51.506;7.678;2024-03-02T06:45:04;98591.25;;;6.40;93.56
37778;BME280;23615;51.506;7.678;2024-03-02T06:47:30;98590.47;;;6.39;93.23
37778;BME280;23615;51.506;7.678;2024-03-02T06:49:55;98596.34;;;6.42;93.69
37778;BME280;23615;51.506;7.678;2024-03-02T06:52:22;98585.06;;;6.46;93.44
37778;BME280;23615;51.506;7.678;2024-03-02T06:54:47;98595.66;;;6.46;93.49
37778;BME280;23615;51.506;7.678;2024-03-02T06:57:13;98585.84;;;6.47;93.72
37778;BME280;23615;51.506;7.678;2024-03-02T06:59:38;98593.31;;;6.50;93.90
37778;BME280;23615;51.506;7.678;2024-03-02T07:02:03;98595.97;;;6.50;93.97
37778;BME280;23615;51.506;7.678;2024-03-02T07:04:29;98595.16;;;6.49;93.88
37778;BME280;23615;51.506;7.678;2024-03-02T07:06:54;98587.00;;;6.51;93.88
37778;BME280;23615;51.506;7.678;2024-03-02T07:09:20;98598.75;;;6.55;93.79
37778;BME280;23615;51.506;7.678;2024-03-02T07:11:48;98591.34;;;6.57;94.13
37778;BME280;23615;51.506;7.678;2024-03-02T07:14:13;98597.22;;;6.59;94.22
37778;BME280;23615;51.506;7.678;2024-03-02T07:16:39;98599.66;;;6.72;95.09
37778;BME280;23615;51.506;7.678;2024-03-02T07:19:05;98606.66;;;6.78;94.61
37778;BME280;23615;51.506;7.678;2024-03-02T07:21:31;98608.63;;;6.83;94.07
37778;BME280;23615;51.506;7.678;2024-03-02T07:23:57;98610.47;;;6.82;94.20
37778;BME280;23615;51.506;7.678;2024-03-02T07:26:23;98616.56;;;6.83;94.59
37778;BME280;23615;51.506;7.678;2024-03-02T07:28:49;98614.38;;;6.80;94.68
37778;BME280;23615;51.506;7.678;2024-03-02T07:31:14;98615.63;;;6.89;94.74
37778;BME280;23615;51.506;7.678;2024-03-02T07:33:40;98619.31;;;6.88;93.93
37778;BME280;23615;51.506;7.678;2024-03-02T07:36:06;98623.13;;;7.20;93.50
37778;BME280;23615;51.506;7.678;2024-03-02T07:38:31;98609.13;;;7.08;94.52
37778;BME280;23615;51.506;7.678;2024-03-02T07:40:59;98623.94;;;7.21;94.48
37778;BME280;23615;51.506;7.678;2024-03-02T07:43:25;98618.59;;;7.32;94.74
37778;BME280;23615;51.506;7.678;2024-03-02T07:45:50;98622.47;;;7.41;94.87
37778;BME280;23615;51.506;7.678;2024-03-02T07:48:16;98622.06;;;7.33;94.52
37778;BME280;23615;51.506;7.678;2024-03-02T07:50:41;98624.78;;;7.38;93.97
37778;BME280;23615;51.506;7.678;2024-03-02T07:53:08;98618.72;;;7.37;94.35
37778;BME280;23615;51.506;7.678;2024-03-02T07:55:34;98619.13;;;7.46;94.39
37778;BME280;23615;51.506;7.678;2024-03-02T07:58:00;98622.91;;;7.50;94.26
37778;BME280;23615;51.506;7.678;2024-03-02T08:00:26;98619.56;;;7.55;94.23
37778;BME280;23615;51.506;7.678;2024-03-02T08:02:52;98626.78;;;7.59;94.38
37778;BME280;23615;51.506;7.678;2024-03-02T08:05:18;98628.75;;;7.80;94.10
37778;BME280;23615;51.506;7.678;2024-03-02T08:07:45;98626.56;;;7.77;92.63
37778;BME280;23615;51.506;7.678;2024-03-02T08:10:10;98626.25;;;7.74;93.31
37778;BME280;23615;51.506;7.678;2024-03-02T08:12:36;98630.03;;;7.78;91.82
37778;BME280;23615;51.506;7.678;2024-03-02T08:15:01;98630.84;;;7.78;92.12
37778;BME280;23615;51.506;7.678;2024-03-02T08:17:27;98625.75;;;7.77;92.04
37778;BME280;23615;51.506;7.678;2024-03-02T08:19:52;98630.28;;;7.76;92.37
37778;BME280;23615;51.506;7.678;2024-03-02T08:22:19;98627.16;;;7.79;92.38
37778;BME280;23615;51.506;7.678;2024-03-02T08:24:44;98637.03;;;7.84;92.44
37778;BME280;23615;51.506;7.678;2024-03-02T08:27:09;98627.31;;;7.89;93.28
37778;BME280;23615;51.506;7.678;2024-03-02T08:29:35;98638.59;;;7.97;92.55
37778;BME280;23615;51.506;7.678;2024-03-02T08:32:00;98640.78;;;8.00;92.84
37778;BME280;23615;51.506;7.678;2024-03-02T08:34:25;98641.97;;;8.09;92.60
37778;BME280;23615;51.506;7.678;2024-03-02T08:36:51;98650.50;;;8.11;92.51
37778;BME280;23615;51.506;7.678;2024-03-02T08:39:17;98640.78;;;8.16;92.65
37778;BME280;23615;51.506;7.678;2024-03-02T08:41:44;98644.81;;;8.19;92.66
37778;BME280;23615;51.506;7.678;2024-03-02T08:44:10;98647.59;;;8.29;92.44
37778;BME280;23615;51.506;7.678;2024-03-02T08:46:35;98642.28;;;8.29;92.72
37778;BME280;23615;51.506;7.678;2024-03-02T08:49:01;98643.28;;;8.40;92.40
37778;BME280;23615;51.506;7.678;2024-03-02T08:51:26;98650.94;;;8.36;91.91
37778;BME280;23615;51.506;7.678;2024-03-02T08:53:52;98639.09;;;8.44;91.81
37778;BME280;23615;51.506;7.678;2024-03-02T08:56:17;98655.25;;;8.59;91.25
37778;BME280;23615;51.506;7.678;2024-03-02T08:58:43;98669.13;;;8.61;90.92
37778;BME280;23615;51.506;7.678;2024-03-02T09:01:09;98667.97;;;8.57;91.30
37778;BME280;23615;51.506;7.678;2024-03-02T09:03:34;98667.56;;;8.65;90.71
37778;BME280;23615;51.506;7.678;2024-03-02T09:06:00;98663.19;;;8.76;90.29
37778;BME280;23615;51.506;7.678;2024-03-02T09:08:26;98678.34;;;8.75;89.57
37778;BME280;23615;51.506;7.678;2024-03-02T09:10:51;98670.31;;;8.70;90.32
37778;BME280;23615;51.506;7.678;2024-03-02T09:13:17;98670.13;;;8.77;89.90
37778;BME280;23615;51.506;7.678;2024-03-02T09:15:42;98663.34;;;8.86;90.07
37778;BME280;23615;51.506;7.678;2024-03-02T09:18:09;98663.09;;;8.87;90.95
37778;BME280;23615;51.506;7.678;2024-03-02T09:20:35;98652.22;;;8.89;90.64
37778;BME280;23615;51.506;7.678;2024-03-02T09:23:00;98659.28;;;9.00;90.45
37778;BME280;23615;51.506;7.678;2024-03-02T09:25:25;98664.41;;;9.07;89.20
37778;BME280;23615;51.506;7.678;2024-03-02T09:27:51;98652.22;;;9.11;89.62
37778;BME280;23615;51.506;7.678;2024-03-02T09:30:16;98658.53;;;9.26;89.39
37778;BME280;23615;51.506;7.678;2024-03-02T09:32:41;98652.47;;;9.31;88.30
37778;BME280;23615;51.506;7.678;2024-03-02T09:35:07;98657.53;;;9.32;88.29
37778;BME280;23615;51.506;7.678;2024-03-02T09:37:32;98643.66;;;9.30;89.01
37778;BME280;23615;51.506;7.678;2024-03-02T09:39:57;98651.72;;;9.35;89.78
37778;BME280;23615;51.506;7.678;2024-03-02T09:42:23;98646.97;;;9.37;89.85
37778;BME280;23615;51.506;7.678;2024-03-02T09:44:49;98643.78;;;9.41;90.33
37778;BME280;23615;51.506;7.678;2024-03-02T09:47:14;98640.91;;;9.47;88.86
37778;BME280;23615;51.506;7.678;2024-03-02T09:49:40;98640.19;;;9.52;88.95
37778;BME280;23615;51.506;7.678;2024-03-02T09:52:05;98646.34;;;9.57;89.86
37778;BME280;23615;51.506;7.678;2024-03-02T09:54:32;98643.31;;;9.70;88.80
37778;BME280;23615;51.506;7.678;2024-03-02T09:56:57;98644.66;;;9.73;88.74
37778;BME280;23615;51.506;7.678;2024-03-02T09:59:22;98647.88;;;9.75;88.70
37778;BME280;23615;51.506;7.678;2024-03-02T10:02:01;98648.41;;;9.77;88.60
37778;BME280;23615;51.506;7.678;2024-03-02T10:04:28;98643.19;;;9.87;88.16
37778;BME280;23615;51.506;7.678;2024-03-02T10:09:35;98635.78;;;10.21;87.09
37778;BME280;23615;51.506;7.678;2024-03-02T10:12:05;98632.91;;;10.28;86.32
37778;BME280;23615;51.506;7.678;2024-03-02T10:14:31;98638.78;;;10.30;86.96
37778;BME280;23615;51.506;7.678;2024-03-02T10:17:04;98637.78;;;10.36;85.78
37778;BME280;23615;51.506;7.678;2024-03-02T10:19:30;98645.56;;;10.47;85.49
37778;BME280;23615;51.506;7.678;2024-03-02T10:22:00;98650.16;;;10.57;86.05
37778;BME280;23615;51.506;7.678;2024-03-02T10:24:26;98641.34;;;10.57;83.89
37778;BME280;23615;51.506;7.678;2024-03-02T10:26:52;98646.25;;;10.70;84.53
37778;BME280;23615;51.506;7.678;2024-03-02T10:29:18;98641.97;;;10.64;84.93
37778;BME280;23615;51.506;7.678;2024-03-02T10:31:45;98646.81;;;10.77;85.03
37778;BME280;23615;51.506;7.678;2024-03-02T10:34:11;98640.97;;;10.80;84.90
37778;BME280;23615;51.506;7.678;2024-03-02T10:36:38;98633.72;;;10.75;82.58
37778;BME280;23615;51.506;7.678;2024-03-02T10:39:07;98636.00;;;10.99;83.08
37778;BME280;23615;51.506;7.678;2024-03-02T10:41:36;98641.59;;;10.97;82.94
37778;BME280;23615;51.506;7.678;2024-03-02T10:44:06;98629.78;;;10.83;82.42
37778;BME280;23615;51.506;7.678;2024-03-02T10:46:34;98633.34;;;10.99;82.50
37778;BME280;23615;51.506;7.678;2024-03-02T10:49:01;98629.81;;;10.93;83.76
37778;BME280;23615;51.506;7.678;2024-03-02T10:51:28;98633.06;;;11.00;84.65
37778;BME280;23615;51.506;7.678;2024-03-02T10:54:00;98635.25;;;11.13;84.61
37778;BME280;23615;51.506;7.678;2024-03-02T10:56:32;98631.53;;;11.14;84.50
37778;BME280;23615;51.506;7.678;2024-03-02T11:02:00;98629.94;;;11.18;84.95
37778;BME280;23615;51.506;7.678;2024-03-02T11:04:27;98631.28;;;11.21;84.50
37778;BME280;23615;51.506;7.678;2024-03-02T11:07:00;98631.56;;;11.24;84.18
37778;BME280;23615;51.506;7.678;2024-03-02T11:09:27;98624.09;;;11.27;85.56
37778;BME280;23615;51.506;7.678;2024-03-02T11:12:02;98622.78;;;11.39;85.28
37778;BME280;23615;51.506;7.678;2024-03-02T11:14:30;98621.22;;;11.48;84.41
37778;BME280;23615;51.506;7.678;2024-03-02T11:16:57;98625.78;;;11.58;83.77
37778;BME280;23615;51.506;7.678;2024-03-02T11:19:23;98616.97;;;11.62;83.73
37778;BME280;23615;51.506;7.678;2024-03-02T11:21:49;98624.44;;;11.66;83.69
37778;BME280;23615;51.506;7.678;2024-03-02T11:26:47;98611.44;;;12.05;79.97
37778;BME280;23615;51.506;7.678;2024-03-02T11:32:01;98612.75;;;12.38;77.42
37778;BME280;23615;51.506;7.678;2024-03-02T11:34:31;98620.25;;;12.15;78.06
37778;BME280;23615;51.506;7.678;2024-03-02T11:37:02;98618.66;;;12.14;80.98
37778;BME280;23615;51.506;7.678;2024-03-02T11:39:28;98612.50;;;12.24;80.59
37778;BME280;23615;51.506;7.678;2024-03-02T11:41:54;98607.94;;;12.24;80.18
37778;BME280;23615;51.506;7.678;2024-03-02T11:44:20;98611.16;;;12.26;80.67
37778;BME280;23615;51.506;7.678;2024-03-02T11:46:52;98615.16;;;12.34;78.71
37778;BME280;23615;51.506;7.678;2024-03-02T11:49:36;98607.66;;;12.31;79.13
37778;BME280;23615;51.506;7.678;2024-03-02T11:52:03;98606.34;;;12.33;79.75
37778;BME280;23615;51.506;7.678;2024-03-02T11:54:30;98610.06;;;12.53;80.21
37778;BME280;23615;51.506;7.678;2024-03-02T11:56:58;98602.53;;;12.60;79.33
37778;BME280;23615;51.506;7.678;2024-03-02T11:59:26;98607.34;;;12.68;79.13
37778;BME280;23615;51.506;7.678;2024-03-02T12:01:51;98598.22;;;12.69;79.69
37778;BME280;23615;51.506;7.678;2024-03-02T12:04:17;98590.72;;;12.81;79.53
37778;BME280;23615;51.506;7.678;2024-03-02T12:06:43;98585.09;;;12.83;79.82
37778;BME280;23615;51.506;7.678;2024-03-02T12:09:09;98591.97;;;12.99;79.55
37778;BME280;23615;51.506;7.678;2024-03-02T12:11:37;98591.38;;;13.12;79.19
37778;BME280;23615;51.506;7.678;2024-03-02T12:14:02;98590.56;;;13.11;77.87
37778;BME280;23615;51.506;7.678;2024-03-02T12:16:29;98587.06;;;13.21;76.71
37778;BME280;23615;51.506;7.678;2024-03-02T12:18:55;98584.44;;;13.16;75.91
37778;BME280;23615;51.506;7.678;2024-03-02T12:21:20;98578.22;;;13.26;76.42
37778;BME280;23615;51.506;7.678;2024-03-02T12:23:46;98581.97;;;13.25;77.42
37778;BME280;23615;51.506;7.678;2024-03-02T12:26:11;98580.38;;;13.24;78.06
37778;BME280;23615;51.506;7.678;2024-03-02T12:28:37;98577.44;;;13.25;77.42
37778;BME280;23615;51.506;7.678;2024-03-02T12:31:03;98574.47;;;13.27;76.84
37778;BME280;23615;51.506;7.678;2024-03-02T12:33:28;98572.81;;;13.31;75.92
37778;BME280;23615;51.506;7.678;2024-03-02T12:35:56;98575.25;;;13.32;75.15
37778;BME280;23615;51.506;7.678;2024-03-02T12:38:22;98573.41;;;13.28;77.20
37778;BME280;23615;51.506;7.678;2024-03-02T12:40:51;98569.03;;;13.42;77.02
37778;BME280;23615;51.506;7.678;2024-03-02T12:43:17;98567.59;;;13.55;76.42
37778;BME280;23615;51.506;7.678;2024-03-02T12:45:43;98577.41;;;13.74;76.22
37778;BME280;23615;51.506;7.678;2024-03-02T12:48:08;98571.34;;;13.93;75.75
37778;BME280;23615;51.506;7.678;2024-03-02T12:50:33;98577.47;;;13.98;75.37
37778;BME280;23615;51.506;7.678;2024-03-02T12:52:59;98577.28;;;13.84;74.60
37778;BME280;23615;51.506;7.678;2024-03-02T12:55:24;98568.41;;;13.89;74.47
37778;BME280;23615;51.506;7.678;2024-03-02T12:57:53;98566.09;;;13.77;75.79
37778;BME280;23615;51.506;7.678;2024-03-02T13:00:19;98568.22;;;13.80;72.23
37778;BME280;23615;51.506;7.678;2024-03-02T13:02:46;98580.50;;;13.86;72.56
37778;BME280;23615;51.506;7.678;2024-03-02T13:05:11;98564.00;;;13.69;73.75
37778;BME280;23615;51.506;7.678;2024-03-02T13:07:38;98562.88;;;13.75;75.83
37778;BME280;23615;51.506;7.678;2024-03-02T13:10:04;98561.13;;;13.95;75.37
37778;BME280;23615;51.506;7.678;2024-03-02T13:12:30;98563.84;;;13.90;74.33
37778;BME280;23615;51.506;7.678;2024-03-02T13:14:58;98564.41;;;13.86;74.71